createdAt,value
2018-09-02T00:01:25.158Z,11.10
2018-09-02T00:04:36.743Z,12.75
2018-09-02T00:07:49.853Z,13.95
2018-09-02T00:11:01.184Z,16.32
2018-09-02T00:14:12.422Z,14.58
2018-09-02T00:17:23.633Z,14.68
2018-09-02T00:20:35.444Z,12.23
2018-09-02T00:23:47.365Z,12.10
2018-09-02T00:26:59.489Z,13.00
2018-09-02T00:30:11.831Z,10.30
2018-09-02T00:33:23.935Z,11.68
2018-09-02T00:36:35.697Z,12.23
2018-09-02T00:39:47.637Z,10.50
2018-09-02T00:42:58.905Z,11.75
2018-09-02T00:46:11.204Z,8.03
2018-09-02T00:49:22.544Z,9.35
2018-09-02T00:52:34.745Z,7.92
2018-09-02T00:55:46.690Z,8.93
2018-09-02T00:58:58.514Z,11.28
2018-09-02T01:02:10.371Z,10.55
2018-09-02T01:05:22.357Z,11.20
2018-09-02T01:08:34.292Z,10.25
2018-09-02T01:11:46.097Z,11.85
2018-09-02T01:14:57.279Z,11.50
2018-09-02T01:18:08.353Z,10.40
2018-09-02T01:21:19.846Z,10.00
2018-09-02T01:24:31.957Z,9.78
2018-09-02T01:27:44.078Z,10.35
2018-09-02T01:30:55.086Z,12.68
2018-09-02T01:34:07.175Z,12.60
2018-09-02T01:37:19.387Z,10.55
2018-09-02T01:40:32.086Z,10.68
2018-09-02T01:43:43.622Z,11.35
2018-09-02T01:46:55.777Z,10.00
2018-09-02T01:50:07.829Z,10.00
2018-09-02T01:53:19.972Z,9.25
2018-09-02T01:56:31.908Z,9.30
2018-09-02T01:59:43.905Z,9.10
2018-09-02T02:02:55.538Z,10.20
2018-09-02T02:06:07.237Z,10.20
2018-09-02T02:09:18.601Z,10.50
2018-09-02T02:12:30.632Z,9.68
2018-09-02T02:15:41.944Z,11.63
2018-09-02T02:18:53.408Z,8.55
2018-09-02T02:22:04.786Z,10.85
2018-09-02T02:25:16.554Z,10.63
2018-09-02T02:28:28.725Z,12.75
2018-09-02T02:31:39.799Z,11.55
2018-09-02T02:34:51.503Z,11.40
2018-09-02T02:38:03.593Z,9.05
2018-09-02T02:41:15.850Z,9.08
2018-09-02T02:44:27.723Z,10.30
2018-09-02T02:47:39.903Z,9.83
2018-09-02T02:50:51.608Z,9.15
2018-09-02T02:54:03.061Z,10.15
2018-09-02T02:57:15.086Z,11.73
2018-09-02T03:00:26.424Z,12.28
2018-09-02T03:03:37.918Z,11.73
2018-09-02T03:06:50.041Z,11.18
2018-09-02T03:10:02.095Z,13.15
2018-09-02T03:13:13.411Z,11.83
2018-09-02T03:16:25.195Z,12.40
2018-09-02T03:19:37.135Z,12.80
2018-09-02T03:22:49.123Z,11.22
2018-09-02T03:26:00.959Z,14.18
2018-09-02T03:29:12.930Z,12.25
2018-09-02T03:32:24.753Z,13.13
2018-09-02T03:35:36.722Z,16.37
2018-09-02T03:38:48.044Z,14.60
2018-09-02T03:42:00.291Z,12.63
2018-09-02T03:45:12.397Z,12.58
2018-09-02T03:48:24.464Z,14.38
2018-09-02T03:51:36.676Z,15.05
2018-09-02T03:54:47.862Z,15.05
2018-09-02T03:57:59.708Z,16.10
2018-09-02T04:01:11.481Z,15.25
2018-09-02T04:04:24.173Z,15.20
2018-09-02T04:07:35.861Z,20.10
2018-09-02T04:10:47.077Z,16.75
2018-09-02T04:13:58.554Z,14.63
2018-09-02T04:17:10.027Z,19.10
2018-09-02T04:20:26.279Z,16.82
2018-09-02T04:23:37.560Z,15.50
2018-09-02T04:26:49.241Z,17.67
2018-09-02T04:30:00.847Z,14.23
2018-09-02T04:33:12.180Z,16.87
2018-09-02T04:36:24.492Z,14.90
2018-09-02T04:39:36.579Z,13.72
2018-09-02T04:42:47.974Z,15.48
2018-09-02T04:46:00.103Z,17.50
2018-09-02T04:49:12.303Z,15.88
2018-09-02T04:52:23.984Z,16.32
2018-09-02T04:55:35.676Z,15.50
2018-09-02T04:58:46.867Z,15.88
2018-09-02T05:01:58.290Z,17.90
2018-09-02T05:05:09.795Z,15.78
2018-09-02T05:08:21.410Z,17.75
2018-09-02T05:11:32.884Z,16.90
2018-09-02T05:14:44.761Z,19.70
2018-09-02T05:17:56.691Z,17.77
2018-09-02T05:21:09.534Z,19.82
2018-09-02T05:24:21.672Z,20.20
2018-09-02T05:27:33.760Z,19.70
2018-09-02T05:30:45.767Z,18.40
2018-09-02T05:33:57.222Z,19.02
2018-09-02T05:37:09.093Z,18.02
2018-09-02T05:40:20.531Z,14.47
2018-09-02T05:43:31.713Z,15.00
2018-09-02T05:46:43.197Z,12.65
2018-09-02T05:49:55.403Z,16.10
2018-09-02T05:53:07.057Z,11.18
2018-09-02T05:56:18.566Z,12.33
2018-09-02T05:59:30.016Z,11.38
2018-09-02T06:02:42.202Z,9.20
2018-09-02T06:05:54.265Z,12.47
2018-09-02T06:09:08.355Z,8.70
2018-09-02T06:12:20.120Z,11.03
2018-09-02T06:15:32.019Z,10.40
2018-09-02T06:18:44.433Z,7.62
2018-09-02T06:21:56.457Z,6.62
2018-09-02T06:25:08.774Z,9.63
2018-09-02T06:28:20.811Z,7.03
2018-09-02T06:31:33.612Z,8.18
2018-09-02T06:34:45.087Z,8.68
2018-09-02T06:37:57.049Z,7.17
2018-09-02T06:41:08.817Z,8.33
2018-09-02T06:44:20.055Z,6.55
2018-09-02T06:47:31.724Z,6.83
2018-09-02T06:50:43.146Z,6.92
2018-09-02T06:53:54.795Z,6.00
2018-09-02T06:57:07.240Z,7.17
2018-09-02T07:00:18.604Z,6.08
2018-09-02T07:03:30.522Z,6.17
2018-09-02T07:06:42.335Z,6.62
2018-09-02T07:09:54.584Z,6.67
2018-09-02T07:13:06.499Z,7.15
2018-09-02T07:16:18.300Z,7.15
2018-09-02T07:19:30.129Z,7.55
2018-09-02T07:22:41.935Z,7.45
2018-09-02T07:25:53.779Z,6.97
2018-09-02T07:29:05.209Z,7.70
2018-09-02T07:32:17.133Z,7.67
2018-09-02T07:35:28.542Z,8.05
2018-09-02T07:38:40.483Z,7.87
2018-09-02T07:41:51.990Z,7.60
2018-09-02T07:45:04.134Z,7.42
2018-09-02T07:48:15.377Z,7.28
2018-09-02T07:51:27.355Z,6.90
2018-09-02T07:54:39.237Z,7.62
2018-09-02T07:57:51.186Z,8.38
2018-09-02T08:01:03.472Z,6.75
2018-09-02T08:04:15.271Z,7.40
2018-09-02T08:07:27.443Z,7.42
2018-09-02T08:10:39.538Z,8.98
2018-09-02T08:13:51.341Z,8.38
2018-09-02T08:17:02.614Z,6.47
2018-09-02T08:20:14.772Z,9.60
2018-09-02T08:23:26.836Z,8.78
2018-09-02T08:26:38.635Z,10.10
2018-09-02T08:29:50.330Z,9.70
2018-09-02T08:33:02.334Z,10.65
2018-09-02T08:36:15.172Z,12.05
2018-09-02T08:39:26.941Z,10.25
2018-09-02T08:42:38.129Z,10.95
2018-09-02T08:45:50.061Z,10.85
2018-09-02T08:49:01.453Z,12.58
2018-09-02T08:52:13.024Z,9.65
2018-09-02T08:55:24.546Z,9.48
2018-09-02T08:58:36.363Z,10.43
2018-09-02T09:01:47.674Z,9.98
2018-09-02T09:05:00.433Z,10.23
2018-09-02T09:08:12.622Z,8.23
2018-09-02T09:11:24.832Z,7.72
2018-09-02T09:14:37.012Z,10.53
2018-09-02T09:17:48.405Z,7.80
2018-09-02T09:21:00.144Z,8.75
2018-09-02T09:24:11.386Z,7.67
2018-09-02T09:27:23.182Z,6.17
2018-09-02T09:30:35.249Z,8.73
2018-09-02T09:33:46.890Z,7.85
2018-09-02T09:36:58.809Z,7.45
2018-09-02T09:40:10.787Z,8.30
2018-09-02T09:43:22.411Z,7.42
2018-09-02T09:46:34.433Z,7.60
2018-09-02T09:49:45.720Z,6.80
2018-09-02T09:52:57.917Z,6.90
2018-09-02T09:56:09.625Z,6.75
2018-09-02T09:59:22.875Z,8.05
2018-09-02T10:02:34.032Z,7.75
2018-09-02T10:05:45.750Z,7.47
2018-09-02T10:08:57.142Z,7.35
2018-09-02T10:12:08.989Z,7.10
2018-09-02T10:15:21.310Z,7.33
2018-09-02T10:18:32.793Z,8.40
2018-09-02T10:21:43.971Z,9.18
2018-09-02T10:24:56.142Z,8.10
2018-09-02T10:28:08.117Z,8.23
2018-09-02T10:31:20.142Z,8.30
2018-09-02T10:34:32.105Z,8.88
2018-09-02T10:37:43.770Z,9.58
2018-09-02T10:40:55.901Z,10.55
2018-09-02T10:44:07.529Z,11.45
2018-09-02T10:47:19.520Z,10.40
2018-09-02T10:50:31.638Z,11.25
2018-09-02T10:53:45.773Z,10.75
2018-09-02T10:56:57.912Z,10.85
2018-09-02T11:00:11.786Z,13.83
2018-09-02T11:03:23.089Z,12.10
2018-09-02T11:06:35.032Z,12.03
2018-09-02T11:09:46.797Z,12.40
2018-09-02T11:12:58.487Z,11.88
2018-09-02T11:16:10.529Z,12.45
2018-09-02T11:19:22.286Z,12.58
2018-09-02T11:22:34.296Z,13.78
2018-09-02T11:25:45.918Z,13.08
2018-09-02T11:28:57.425Z,12.70
2018-09-02T11:32:09.463Z,12.63
2018-09-02T11:35:20.894Z,13.28
2018-09-02T11:38:32.806Z,13.72
2018-09-02T11:41:44.874Z,15.85
2018-09-02T11:44:56.886Z,13.35
2018-09-02T11:48:08.394Z,15.60
2018-09-02T11:51:19.561Z,17.10
2018-09-02T11:54:31.093Z,16.32
2018-09-02T11:57:43.020Z,17.20
2018-09-02T12:00:54.914Z,21.55
2018-09-02T12:04:06.841Z,16.27
2018-09-02T12:07:18.329Z,18.30
2018-09-02T12:10:30.187Z,20.08
2018-09-02T12:13:41.327Z,20.23
2018-09-02T12:16:52.459Z,18.00
2018-09-02T12:20:03.861Z,19.85
2018-09-02T12:23:15.809Z,18.82
2018-09-02T12:26:27.042Z,20.50
2018-09-02T12:29:38.224Z,20.90
2018-09-02T12:32:49.419Z,20.32
2018-09-02T12:36:01.117Z,19.92
2018-09-02T12:39:12.336Z,20.20
2018-09-02T12:42:24.056Z,17.48
2018-09-02T12:45:35.999Z,21.17
2018-09-02T12:48:47.803Z,22.60
2018-09-02T12:51:59.686Z,23.52
2018-09-02T12:55:12.298Z,24.63
2018-09-02T12:58:24.891Z,26.50
2018-09-02T13:01:36.449Z,26.90
2018-09-02T13:04:48.439Z,23.85
2018-09-02T13:07:59.625Z,27.37
2018-09-02T13:11:10.820Z,27.58
2018-09-02T13:14:22.920Z,24.82
2018-09-02T13:17:35.517Z,29.00
2018-09-02T13:20:47.047Z,26.07
2018-09-02T13:23:58.938Z,26.68
2018-09-02T13:27:10.451Z,24.23
2018-09-02T13:30:21.720Z,24.02
2018-09-02T13:33:33.691Z,29.10
2018-09-02T13:36:44.810Z,18.67
2018-09-02T13:39:56.924Z,22.35
2018-09-02T13:43:08.407Z,29.50
2018-09-02T13:46:20.252Z,30.50
2018-09-02T13:49:31.766Z,25.75
2018-09-02T13:52:43.872Z,24.57
2018-09-02T13:55:56.340Z,28.27
2018-09-02T13:59:08.119Z,25.30
2018-09-02T14:02:19.352Z,24.87
2018-09-02T14:05:30.675Z,30.30
2018-09-02T14:08:42.697Z,25.70
2018-09-02T14:11:54.861Z,27.22
2018-09-02T14:15:07.656Z,23.42
2018-09-02T14:18:19.301Z,28.10
2018-09-02T14:21:31.384Z,24.85
2018-09-02T14:24:43.403Z,26.55
2018-09-02T14:27:55.252Z,29.87
2018-09-02T14:31:06.449Z,29.52
2018-09-02T14:34:18.141Z,27.00
2018-09-02T14:37:30.349Z,26.85
2018-09-02T14:40:43.712Z,29.27
2018-09-02T14:43:56.016Z,29.45
2018-09-02T14:47:08.139Z,30.08
2018-09-02T14:50:20.973Z,33.78
2018-09-02T14:53:32.491Z,31.68
2018-09-02T14:56:44.832Z,30.80
2018-09-02T14:59:56.880Z,30.37
2018-09-02T15:03:08.569Z,34.70
2018-09-02T15:06:20.481Z,29.63
2018-09-02T15:09:32.357Z,33.80
2018-09-02T15:12:43.893Z,31.57
2018-09-02T15:15:55.627Z,29.42
2018-09-02T15:19:07.210Z,34.65
2018-09-02T15:22:20.652Z,27.75
2018-09-02T15:25:32.428Z,28.45
2018-09-02T15:28:43.858Z,28.57
2018-09-02T15:31:55.738Z,29.18
2018-09-02T15:35:16.030Z,30.70
2018-09-02T15:38:32.545Z,30.72
2018-09-02T15:41:44.756Z,26.02
2018-09-02T15:44:56.077Z,37.00
2018-09-02T15:48:09.502Z,28.10
2018-09-02T15:51:21.035Z,32.95
2018-09-02T15:54:36.943Z,28.80
2018-09-02T15:57:51.077Z,29.60
2018-09-02T16:01:05.036Z,26.37
2018-09-02T16:04:18.965Z,29.95
2018-09-02T16:07:32.802Z,34.23
2018-09-02T16:10:45.347Z,25.65
2018-09-02T16:13:57.435Z,28.23
2018-09-02T16:17:10.682Z,24.70
2018-09-02T16:20:23.285Z,23.75
2018-09-02T16:23:35.523Z,24.05
2018-09-02T16:26:47.087Z,25.25
2018-09-02T16:29:59.071Z,26.62
2018-09-02T16:33:10.997Z,25.68
2018-09-02T16:36:22.862Z,28.90
2018-09-02T16:39:34.555Z,27.48
2018-09-02T16:42:46.179Z,27.25
2018-09-02T16:45:58.072Z,28.57
2018-09-02T16:49:10.563Z,28.05
2018-09-02T16:52:22.673Z,31.05
2018-09-02T16:55:34.743Z,32.15
2018-09-02T16:58:47.640Z,28.05
2018-09-02T17:01:58.893Z,30.92
2018-09-02T17:05:15.986Z,29.92
2018-09-02T17:08:28.313Z,30.17
2018-09-02T17:11:40.363Z,32.67
2018-09-02T17:14:52.427Z,26.10
2018-09-02T17:18:03.862Z,27.85
2018-09-02T17:21:15.654Z,30.12
2018-09-02T17:24:26.726Z,29.27
2018-09-02T17:27:37.980Z,27.65
2018-09-02T17:30:49.748Z,28.35
2018-09-02T17:34:00.986Z,25.45
2018-09-02T17:37:12.117Z,26.90
2018-09-02T17:40:24.069Z,34.63
2018-09-02T17:43:35.151Z,26.00
2018-09-02T17:46:46.386Z,30.30
2018-09-02T17:49:58.447Z,26.48
2018-09-02T17:53:10.656Z,27.60
2018-09-02T17:56:23.133Z,33.33
2018-09-02T17:59:35.478Z,28.45
2018-09-02T18:02:47.730Z,29.77
2018-09-02T18:05:59.684Z,29.30
2018-09-02T18:09:12.298Z,30.57
2018-09-02T18:12:23.750Z,30.40
2018-09-02T18:15:35.495Z,29.42
2018-09-02T18:18:47.839Z,29.27
2018-09-02T18:22:00.154Z,36.40
2018-09-02T18:25:12.552Z,28.52
2018-09-02T18:28:28.420Z,32.28
2018-09-02T18:31:40.683Z,33.67
2018-09-02T18:34:52.352Z,30.82
2018-09-02T18:38:03.949Z,27.25
2018-09-02T18:41:15.528Z,30.32
2018-09-02T18:44:26.755Z,26.87
2018-09-02T18:47:39.219Z,29.40
2018-09-02T18:50:50.448Z,28.45
2018-09-02T18:54:02.162Z,27.87
2018-09-02T18:57:13.688Z,29.35
2018-09-02T19:00:26.066Z,29.25
2018-09-02T19:03:37.734Z,29.48
2018-09-02T19:06:48.809Z,24.50
2018-09-02T19:10:00.361Z,25.20
2018-09-02T19:13:12.610Z,28.10
2018-09-02T19:16:23.639Z,29.72
2018-09-02T19:19:35.393Z,29.27
2018-09-02T19:22:46.400Z,34.00
2018-09-02T19:25:58.229Z,28.45
2018-09-02T19:29:10.271Z,24.32
2018-09-02T19:32:22.021Z,32.20
2018-09-02T19:35:34.019Z,33.08
2018-09-02T19:38:45.715Z,35.63
2018-09-02T19:41:57.757Z,29.25
2018-09-02T19:45:10.126Z,31.33
2018-09-02T19:48:21.229Z,31.20
2018-09-02T19:51:32.744Z,31.35
2018-09-02T19:54:44.884Z,33.08
2018-09-02T19:57:57.662Z,31.90
2018-09-02T20:01:09.235Z,29.92
2018-09-02T20:04:20.753Z,27.62
2018-09-02T20:07:33.102Z,30.05
2018-09-02T20:10:44.316Z,27.67
2018-09-02T20:13:56.221Z,31.65
2018-09-02T20:17:07.931Z,27.27
2018-09-02T20:20:19.674Z,28.27
2018-09-02T20:23:31.805Z,29.07
2018-09-02T20:26:42.798Z,28.57
2018-09-02T20:29:54.935Z,27.15
2018-09-02T20:33:05.898Z,26.90
2018-09-02T20:36:17.091Z,28.10
2018-09-02T20:39:28.394Z,30.82
2018-09-02T20:42:39.672Z,33.75
2018-09-02T20:45:51.034Z,28.12
2018-09-02T20:49:02.521Z,29.82
2018-09-02T20:52:13.631Z,31.57
2018-09-02T20:55:24.680Z,31.75
2018-09-02T20:58:36.172Z,34.53
2018-09-02T21:01:47.964Z,34.85
2018-09-02T21:04:59.037Z,35.40
2018-09-02T21:08:10.565Z,34.18
2018-09-02T21:11:22.339Z,33.75
2018-09-02T21:14:34.340Z,35.43
2018-09-02T21:17:45.985Z,32.15
2018-09-02T21:20:57.303Z,37.10
2018-09-02T21:24:08.593Z,37.42
2018-09-02T21:27:20.197Z,31.37
2018-09-02T21:30:31.347Z,34.83
2018-09-02T21:33:42.506Z,32.40
2018-09-02T21:36:53.633Z,37.30
2018-09-02T21:40:06.114Z,35.65
2018-09-02T21:43:17.978Z,31.97
2018-09-02T21:46:29.321Z,34.15
2018-09-02T21:49:40.679Z,33.60
2018-09-02T21:52:52.006Z,31.73
2018-09-02T21:56:03.464Z,30.97
2018-09-02T21:59:14.736Z,32.78
2018-09-02T22:02:26.884Z,30.45
2018-09-02T22:05:38.512Z,36.77
2018-09-02T22:08:50.377Z,34.08
2018-09-02T22:12:02.254Z,39.23
2018-09-02T22:15:14.204Z,35.05
2018-09-02T22:18:25.436Z,36.25
2018-09-02T22:21:36.952Z,32.03
2018-09-02T22:24:48.537Z,32.00
2018-09-02T22:28:00.341Z,37.53
2018-09-02T22:31:12.909Z,36.48
2018-09-02T22:34:24.005Z,36.03
2018-09-02T22:37:35.282Z,38.10
2018-09-02T22:40:46.460Z,34.35
2018-09-02T22:43:58.233Z,35.08
2018-09-02T22:47:10.240Z,37.30
2018-09-02T22:50:22.202Z,32.23
2018-09-02T22:53:34.247Z,34.92
2018-09-02T22:56:45.439Z,37.30
2018-09-02T22:59:56.919Z,41.15
2018-09-02T23:03:08.525Z,39.73
2018-09-02T23:06:20.175Z,43.58
2018-09-02T23:09:31.245Z,37.33
2018-09-02T23:12:42.343Z,41.48
2018-09-02T23:15:53.861Z,41.90
2018-09-02T23:19:05.582Z,38.23
2018-09-02T23:22:18.205Z,38.50
2018-09-02T23:25:29.944Z,37.48
2018-09-02T23:28:41.117Z,39.27
2018-09-02T23:31:53.002Z,38.38
2018-09-02T23:35:04.413Z,41.33
2018-09-02T23:38:15.949Z,39.63
2018-09-02T23:41:27.742Z,37.95
2018-09-02T23:44:39.399Z,36.25
2018-09-02T23:47:50.552Z,40.15
2018-09-02T23:51:01.798Z,37.88
2018-09-02T23:54:12.958Z,37.17
2018-09-02T23:57:24.620Z,36.17
